| time (UTC) | temp C | wind direction | speed KPH | gust KPH | rain 1hr cm | rain 24hr cm | rain mn cm | humidity % | barometer mb |
| 20260507050012 | 12 | 328 | 1.6 | 6.4 | 0.15 | 0.53 | 0.15 | 41 | 1011.4 |
| 20260507044509 | 13 | 332 | 0.0 | 6.4 | 0.00 | 0.38 | 0.00 | 71 | 1011.0 |
| 20260507043014 | 13 | 330 | 3.2 | 4.8 | 0.00 | 0.38 | 0.00 | 64 | 1011.3 |
| 20260507041532 | 14 | 330 | 1.6 | 4.8 | 0.00 | 0.38 | 0.00 | 69 | 1010.8 |
| 20260507040016 | 14 | 348 | 3.2 | 6.4 | 0.00 | 0.38 | 0.00 | 74 | 1010.7 |
| 20260507034518 | 15 | 338 | 3.2 | 8.0 | 0.00 | 0.38 | 0.38 | 75 | 1011.0 |
| 20260507033014 | 15 | 8 | 3.2 | 8.0 | 0.00 | 0.38 | 0.38 | 73 | 1010.6 |
| 20260507031516 | 15 | 335 | 3.2 | 9.7 | 0.00 | 0.38 | 0.38 | 71 | 1010.4 |
| 20260507030020 | 16 | 15 | 6.4 | 8.0 | 0.00 | 0.38 | 0.38 | 52 | 1010.4 |
| 20260507024520 | 16 | 340 | 1.6 | 4.8 | 0.00 | 0.38 | 0.38 | 29 | 1010.1 |
| 20260507023006 | 16 | 344 | 0.0 | 1.6 | 0.00 | 0.38 | 0.38 | 20 | 1010.2 |
| 20260507021514 | 16 | 349 | 3.2 | 4.8 | 0.03 | 0.38 | 0.38 | 3 | 1010.0 |
| 20260507020018 | 16 | 146 | 0.0 | 0.0 | 0.03 | 0.38 | 0.38 | 100 | 1010.0 |
| 20260507014537 | 16 | 145 | 0.0 | 0.0 | 0.03 | 0.38 | 0.38 | 100 | 1010.0 |
| 20260507013034 | 16 | 146 | 0.0 | 1.6 | 0.03 | 0.38 | 0.38 | 2 | 1010.2 |
| 20260507011518 | 16 | 115 | 0.0 | 0.0 | 0.00 | 0.36 | 0.36 | 36 | 1010.0 |
| 20260507010013 | 17 | 115 | 0.0 | 0.0 | 0.00 | 0.36 | 0.36 | 49 | 1009.9 |
| 20260507004518 | 17 | 115 | 0.0 | 0.0 | 0.00 | 0.36 | 0.36 | 55 | 1009.7 |
| 20260507003020 | 17 | 116 | 0.0 | 3.2 | 0.00 | 0.36 | 0.36 | 58 | 1009.5 |
| 20260507001522 | 17 | 119 | 0.0 | 1.6 | 0.00 | 0.36 | 0.36 | 58 | 1009.6 |
| 20260507000029 | 17 | 133 | 0.0 | 1.6 | 0.00 | 0.36 | 0.36 | 62 | 1009.2 |
| 20260506234514 | 18 | 133 | 0.0 | 0.0 | 0.00 | 0.36 | 0.36 | 70 | 1009.1 |
| 20260506233022 | 18 | 131 | 0.0 | 0.0 | 0.00 | 0.36 | 0.36 | 73 | 1008.9 |
| 20260506231523 | 18 | 129 | 0.0 | 0.0 | 0.00 | 0.36 | 0.36 | 75 | 1008.9 |
| 20260506230023 | 18 | 128 | 0.0 | 1.6 | 0.00 | 0.36 | 0.36 | 77 | 1009.0 |
| 20260506224512 | 18 | 123 | 0.0 | 0.0 | 0.00 | 0.36 | 0.36 | 78 | 1008.9 |
| 20260506223015 | 19 | 130 | 0.0 | 0.0 | 0.00 | 0.36 | 0.36 | 79 | 1009.0 |
| 20260506221521 | 19 | 124 | 0.0 | 1.6 | 0.00 | 0.36 | 0.36 | 79 | 1008.9 |
| 20260506220024 | 19 | 129 | 0.0 | 3.2 | 0.00 | 0.36 | 0.36 | 79 | 1009.0 |
| 20260506214527 | 19 | 150 | 1.6 | 4.8 | 0.00 | 0.36 | 0.36 | 80 | 1008.7 |
| 20260506213024 | 19 | 141 | 1.6 | 4.8 | 0.00 | 0.36 | 0.36 | 80 | 1008.6 |
| 20260506211519 | 20 | 129 | 4.8 | 8.0 | 0.00 | 0.36 | 0.36 | 79 | 1008.6 |
| 20260506210026 | 20 | 319 | 0.0 | 9.7 | 0.00 | 0.36 | 0.36 | 78 | 1008.4 |
| 20260506204526 | 20 | 167 | 0.0 | 8.0 | 0.00 | 0.36 | 0.36 | 78 | 1008.6 |
| 20260506203012 | 21 | 153 | 1.6 | 8.0 | 0.00 | 0.36 | 0.36 | 76 | 1008.3 |
| 20260506201513 | 21 | 125 | 0.0 | 8.0 | 0.00 | 0.36 | 0.36 | 77 | 1008.4 |
| 20260506200019 | 21 | 309 | 1.6 | 11.3 | 0.00 | 0.36 | 0.36 | 78 | 1008.3 |
| 20260506194503 | 20 | 191 | 1.6 | 6.4 | 0.00 | 0.36 | 0.36 | 79 | 1008.5 |
| 20260506193006 | 20 | 167 | 3.2 | 9.7 | 0.00 | 0.36 | 0.36 | 78 | 1008.5 |
| 20260506191517 | 19 | 113 | 0.0 | 8.0 | 0.00 | 0.36 | 0.36 | 75 | 1008.9 |
| 20260506190015 | 18 | 354 | 0.0 | 4.8 | 0.00 | 0.36 | 0.36 | 71 | 1009.1 |
| 20260506184520 | 17 | 115 | 0.0 | 6.4 | 0.00 | 0.36 | 0.36 | 66 | 1009.1 |
| 20260506183006 | 17 | 155 | 0.0 | 4.8 | 0.00 | 0.36 | 0.36 | 57 | 1009.2 |
| 20260506181532 | 17 | 159 | 0.0 | 6.4 | 0.00 | 0.36 | 0.36 | 46 | 1009.4 |
| 20260506180024 | 16 | 205 | 0.0 | 6.4 | 0.00 | 0.36 | 0.36 | 26 | 1009.4 |
| 20260506174519 | 16 | 128 | 0.0 | 6.4 | 0.00 | 0.36 | 0.36 | 9 | 1009.5 |
| 20260506173022 | 15 | 177 | 0.0 | 3.2 | 0.00 | 0.36 | 0.36 | 100 | 1009.4 |
| 20260506171507 | 15 | 252 | 0.0 | 8.0 | 0.00 | 0.36 | 0.36 | 100 | 1009.5 |
| 20260506170013 | 15 | 124 | 0.0 | 8.0 | 0.00 | 0.36 | 0.36 | 100 | 1009.6 |
| 20260506164516 | 15 | 200 | 1.6 | 6.4 | 0.00 | 0.36 | 0.36 | 100 | 1009.7 |
| 20260506163022 | 15 | 110 | 1.6 | 9.7 | 0.00 | 0.36 | 0.36 | 100 | 1009.8 |
| 20260506161536 | 15 | 195 | 0.0 | 11.3 | 0.05 | 0.36 | 0.36 | 100 | 1009.9 |
| 20260506160026 | 15 | 138 | 3.2 | 11.3 | 0.10 | 0.36 | 0.36 | 100 | 1010.0 |
| 20260506154512 | 15 | 159 | 1.6 | 9.7 | 0.13 | 0.36 | 0.36 | 100 | 1010.0 |
| 20260506153026 | 15 | 127 | 0.0 | 6.4 | 0.15 | 0.36 | 0.36 | 100 | 1010.5 |
| 20260506151522 | 15 | 214 | 1.6 | 9.7 | 0.15 | 0.30 | 0.30 | 100 | 1010.8 |
| 20260506150027 | 15 | 333 | 0.0 | 3.2 | 0.15 | 0.25 | 0.25 | 100 | 1010.9 |
| 20260506144527 | 15 | 119 | 0.0 | 6.4 | 0.18 | 0.23 | 0.23 | 4 | 1010.6 |
| 20260506143015 | 15 | 133 | 1.6 | 4.8 | 0.18 | 0.20 | 0.20 | 12 | 1010.5 |
| 20260506141528 | 15 | 120 | 1.6 | 4.8 | 0.15 | 0.15 | 0.15 | 28 | 1010.8 |
| 20260506140022 | 15 | 97 | 0.0 | 1.6 | 0.10 | 0.10 | 0.10 | 47 | 1011.2 |
| 20260506134600 | 15 | 135 | 1.6 | 8.0 | 0.05 | 0.05 | 0.05 | 61 | 1010.8 |
| 20260506133012 | 16 | 155 | 0.0 | 3.2 | 0.03 | 0.03 | 0.03 | 69 | 1011.0 |
| 20260506131515 | 16 | 136 | 0.0 | 6.4 | 0.00 | 0.00 | 0.00 | 73 | 1010.5 |
| 20260506130028 | 16 | 156 | 0.0 | 6.4 | 0.00 | 0.00 | 0.00 | 74 | 1010.6 |
| 20260506124505 | 16 | 158 | 0.0 | 6.4 | 0.00 | 0.00 | 0.00 | 78 | 1010.8 |
| 20260506123006 | 16 | 113 | 0.0 | 3.2 | 0.00 | 0.00 | 0.00 | 80 | 1011.0 |
| 20260506121525 | 17 | 141 | 0.0 | 4.8 | 0.00 | 0.00 | 0.00 | 81 | 1011.0 |
| 20260506120016 | 17 | 344 | 0.0 | 6.4 | 0.00 | 0.00 | 0.00 | 81 | 1011.0 |
| 20260506114504 | 17 | 127 | 1.6 | 11.3 | 0.00 | 0.00 | 0.00 | 81 | 1010.7 |
| 20260506113006 | 17 | 210 | 1.6 | 9.7 | 0.00 | 0.00 | 0.00 | 80 | 1010.5 |
| 20260506111508 | 16 | 211 | 0.0 | 11.3 | 0.00 | 0.00 | 0.00 | 80 | 1010.4 |
| 20260506110017 | 16 | 204 | 0.0 | 9.7 | 0.00 | 0.00 | 0.00 | 80 | 1010.3 |
| 20260506104520 | 16 | 269 | 0.0 | 9.7 | 0.00 | 0.00 | 0.00 | 80 | 1010.3 |
| 20260506103027 | 16 | 119 | 1.6 | 8.0 | 0.00 | 0.00 | 0.00 | 80 | 1010.1 |
| 20260506101507 | 16 | 169 | 1.6 | 11.3 | 0.00 | 0.00 | 0.00 | 80 | 1010.2 |
| 20260506100010 | 16 | 151 | 1.6 | 9.7 | 0.00 | 0.00 | 0.00 | 80 | 1010.2 |
| 20260506094517 | 16 | 321 | 3.2 | 9.7 | 0.00 | 0.00 | 0.00 | 81 | 1010.1 |
| 20260506093020 | 16 | 126 | 1.6 | 9.7 | 0.00 | 0.00 | 0.00 | 81 | 1010.1 |
| 20260506091526 | 16 | 156 | 1.6 | 8.0 | 0.00 | 0.00 | 0.00 | 81 | 1010.1 |
| 20260506090008 | 16 | 146 | 1.6 | 4.8 | 0.00 | 0.00 | 0.00 | 81 | 1010.3 |
| 20260506084512 | 17 | 110 | 1.6 | 9.7 | 0.00 | 0.00 | 0.00 | 81 | 1010.3 |
| 20260506083019 | 17 | 149 | 1.6 | 12.9 | 0.00 | 0.00 | 0.00 | 80 | 1010.1 |
| 20260506081528 | 17 | 148 | 0.0 | 6.4 | 0.00 | 0.00 | 0.00 | 80 | 1010.1 |
| 20260506073015 | 18 | 107 | 1.6 | 9.7 | 0.00 | 0.00 | 0.00 | 78 | 1010.4 |
| 20260506071521 | 18 | 103 | 0.0 | 9.7 | 0.00 | 0.00 | 0.00 | 78 | 1010.5 |
| 20260506061530 | 17 | 139 | 1.6 | 8.0 | 0.00 | 0.00 | 0.00 | 78 | 1010.8 |